createdAt,value
2018-05-13T00:00:26.489Z,15.70
2018-05-13T00:02:54.027Z,15.70
2018-05-13T00:05:21.684Z,15.80
2018-05-13T00:07:49.168Z,15.70
2018-05-13T00:10:16.723Z,15.60
2018-05-13T00:12:44.263Z,15.60
2018-05-13T00:15:11.823Z,15.60
2018-05-13T00:17:39.347Z,15.50
2018-05-13T00:20:06.901Z,15.40
2018-05-13T00:22:34.438Z,15.30
2018-05-13T00:25:02.003Z,15.30
2018-05-13T00:27:29.536Z,15.20
2018-05-13T00:29:57.063Z,15.20
2018-05-13T00:32:25.415Z,15.00
2018-05-13T00:34:52.996Z,15.00
2018-05-13T00:37:21.324Z,15.00
2018-05-13T00:39:48.859Z,14.90
2018-05-13T00:42:16.413Z,15.00
2018-05-13T00:44:43.940Z,14.90
2018-05-13T00:47:11.512Z,14.90
2018-05-13T00:49:39.826Z,14.70
2018-05-13T00:52:07.363Z,14.70
2018-05-13T00:54:47.532Z,14.80
2018-05-13T00:57:15.089Z,14.80
2018-05-13T00:59:42.635Z,14.80
2018-05-13T01:02:10.961Z,14.70
2018-05-13T01:04:38.526Z,14.60
2018-05-13T01:07:06.080Z,14.60
2018-05-13T01:09:33.631Z,14.60
2018-05-13T01:12:01.164Z,14.70
2018-05-13T01:14:28.719Z,14.70
2018-05-13T01:16:57.136Z,14.70
2018-05-13T01:19:24.693Z,14.80
2018-05-13T01:21:52.224Z,14.70
2018-05-13T01:24:19.776Z,14.80
2018-05-13T01:26:48.164Z,14.90
2018-05-13T01:29:15.723Z,14.80
2018-05-13T01:31:44.015Z,14.90
2018-05-13T01:34:11.556Z,14.90
2018-05-13T01:36:39.880Z,15.00
2018-05-13T01:39:07.439Z,15.00
2018-05-13T01:41:34.933Z,14.90
2018-05-13T01:44:02.404Z,14.80
2018-05-13T01:46:30.663Z,14.80
2018-05-13T01:48:58.144Z,14.80
2018-05-13T01:51:26.399Z,14.70
2018-05-13T01:53:53.869Z,14.70
2018-05-13T01:56:21.370Z,14.60
2018-05-13T01:58:48.854Z,14.70
2018-05-13T02:01:16.345Z,14.70
2018-05-13T02:03:44.582Z,14.40
2018-05-13T02:06:12.085Z,14.40
2018-05-13T02:08:40.324Z,14.30
2018-05-13T02:11:07.831Z,14.30
2018-05-13T02:13:36.066Z,14.30
2018-05-13T02:16:03.619Z,14.30
2018-05-13T02:18:31.121Z,14.20
2018-05-13T02:20:59.364Z,14.00
2018-05-13T02:23:26.863Z,14.00
2018-05-13T02:25:54.344Z,14.00
2018-05-13T02:28:21.847Z,14.00
2018-05-13T02:30:49.327Z,14.00
2018-05-13T02:33:17.596Z,13.90
2018-05-13T02:35:45.081Z,13.80
2018-05-13T02:38:12.555Z,13.90
2018-05-13T02:40:40.055Z,13.80
2018-05-13T02:43:07.554Z,13.90
2018-05-13T02:45:35.062Z,13.80
2018-05-13T02:48:02.576Z,13.70
2018-05-13T02:50:30.076Z,13.70
2018-05-13T02:52:57.552Z,13.70
2018-05-13T02:55:25.047Z,13.60
2018-05-13T02:57:52.531Z,13.50
2018-05-13T03:00:20.032Z,13.50
2018-05-13T03:02:47.518Z,13.50
2018-05-13T03:05:15.013Z,13.50
2018-05-13T03:07:42.484Z,13.50
2018-05-13T03:10:09.981Z,13.40
2018-05-13T03:12:37.451Z,13.50
2018-05-13T03:15:05.713Z,13.60
2018-05-13T03:17:33.976Z,13.50
2018-05-13T03:20:01.448Z,13.50
2018-05-13T03:22:29.052Z,13.60
2018-05-13T03:24:56.528Z,13.60
2018-05-13T03:27:24.048Z,13.60
2018-05-13T03:29:51.524Z,13.60
2018-05-13T03:32:19.004Z,13.70
2018-05-13T03:34:46.502Z,13.70
2018-05-13T03:37:14.005Z,13.70
2018-05-13T03:39:41.474Z,13.80
2018-05-13T03:42:08.975Z,13.80
2018-05-13T03:44:36.468Z,13.80
2018-05-13T03:47:03.943Z,13.80
2018-05-13T03:49:31.443Z,13.90
2018-05-13T03:51:58.918Z,13.90
2018-05-13T03:54:27.176Z,14.00
2018-05-13T03:56:54.656Z,13.90
2018-05-13T03:59:22.918Z,14.30
2018-05-13T04:01:50.400Z,14.30
2018-05-13T04:04:18.683Z,14.30
2018-05-13T04:06:46.156Z,14.20
2018-05-13T04:09:25.667Z,14.40
2018-05-13T04:12:05.878Z,14.40
2018-05-13T04:14:45.323Z,14.40
2018-05-13T04:17:12.831Z,14.40
2018-05-13T04:19:41.096Z,14.50
2018-05-13T04:22:09.335Z,14.40
2018-05-13T04:24:36.835Z,14.40
2018-05-13T04:27:05.073Z,14.30
2018-05-13T04:29:32.548Z,14.30
2018-05-13T04:32:00.051Z,14.30
2018-05-13T04:34:27.566Z,14.30
2018-05-13T04:36:55.072Z,14.30
2018-05-13T04:39:22.546Z,14.40
2018-05-13T04:41:50.049Z,14.30
2018-05-13T04:44:17.512Z,14.40
2018-05-13T04:46:45.759Z,14.60
2018-05-13T04:49:13.263Z,14.50
2018-05-13T04:51:41.503Z,14.50
2018-05-13T04:54:09.003Z,14.50
2018-05-13T04:56:36.475Z,14.60
2018-05-13T04:59:03.977Z,14.70
2018-05-13T05:01:31.455Z,14.80
2018-05-13T05:03:58.939Z,15.00
2018-05-13T05:06:26.413Z,15.00
2018-05-13T05:08:53.972Z,15.00
2018-05-13T05:11:21.395Z,14.80
2018-05-13T05:13:48.893Z,14.90
2018-05-13T05:16:16.370Z,14.90
2018-05-13T05:18:43.889Z,15.10
2018-05-13T05:21:12.151Z,14.90
2018-05-13T05:23:39.618Z,14.90
2018-05-13T05:26:07.889Z,14.90
2018-05-13T05:28:36.126Z,15.10
2018-05-13T05:31:03.626Z,15.00
2018-05-13T05:33:31.863Z,15.30
2018-05-13T05:35:59.370Z,15.30
2018-05-13T05:38:26.850Z,15.40
2018-05-13T05:40:54.328Z,15.50
2018-05-13T05:43:21.822Z,15.80
2018-05-13T05:45:49.295Z,15.70
2018-05-13T05:48:17.603Z,15.90
2018-05-13T05:50:45.802Z,16.10
2018-05-13T05:53:13.299Z,16.00
2018-05-13T05:55:41.547Z,15.90
2018-05-13T05:58:09.054Z,15.90
2018-05-13T06:00:36.524Z,15.80
2018-05-13T06:03:04.025Z,15.70
2018-05-13T06:05:31.523Z,15.70
2018-05-13T06:07:59.751Z,15.90
2018-05-13T06:10:27.247Z,15.90
2018-05-13T06:12:55.488Z,15.90
2018-05-13T06:15:22.994Z,15.90
2018-05-13T06:17:51.227Z,16.90
2018-05-13T06:20:18.732Z,16.90
2018-05-13T06:22:46.997Z,16.70
2018-05-13T06:25:15.387Z,16.70
2018-05-13T06:27:43.525Z,17.10
2018-05-13T06:30:11.020Z,17.10
2018-05-13T06:32:38.495Z,17.30
2018-05-13T06:35:06.003Z,17.40
2018-05-13T06:37:33.485Z,17.50
2018-05-13T06:40:01.746Z,17.70
2018-05-13T06:42:29.231Z,17.70
2018-05-13T06:44:57.511Z,17.70
2018-05-13T06:47:24.998Z,17.60
2018-05-13T06:49:52.483Z,17.70
2018-05-13T06:52:19.976Z,17.70
2018-05-13T06:54:48.263Z,17.60
2018-05-13T06:57:15.774Z,17.70
2018-05-13T06:59:43.514Z,17.80
2018-05-13T07:02:11.058Z,18.00
2018-05-13T07:04:38.596Z,18.20
2018-05-13T07:07:06.036Z,18.20
2018-05-13T07:09:33.552Z,18.40
2018-05-13T07:12:01.047Z,18.40
2018-05-13T07:14:28.544Z,18.50
2018-05-13T07:16:56.046Z,18.10
2018-05-13T07:19:23.551Z,18.20
2018-05-13T07:21:51.794Z,18.00
2018-05-13T07:24:19.302Z,18.00
2018-05-13T07:26:47.616Z,17.80
2018-05-13T07:29:15.148Z,17.60
2018-05-13T07:31:42.629Z,17.50
2018-05-13T07:34:10.161Z,17.50
2018-05-13T07:36:37.640Z,17.50
2018-05-13T07:39:05.182Z,17.50
2018-05-13T07:41:32.684Z,17.40
2018-05-13T07:44:00.171Z,17.50
2018-05-13T07:46:28.428Z,17.60
2018-05-13T07:48:55.943Z,17.60
2018-05-13T07:51:23.453Z,17.50
2018-05-13T07:53:50.958Z,17.20
2018-05-13T07:56:18.434Z,17.40
2018-05-13T07:58:45.936Z,17.40
2018-05-13T08:01:14.187Z,17.50
2018-05-13T08:03:41.692Z,17.50
2018-05-13T08:06:09.258Z,17.40
2018-05-13T08:08:37.533Z,17.60
2018-05-13T08:11:05.018Z,17.60
2018-05-13T08:13:32.539Z,17.70
2018-05-13T08:16:00.802Z,18.20
2018-05-13T08:18:28.300Z,18.20
2018-05-13T08:20:55.779Z,18.30
2018-05-13T08:23:24.090Z,18.90
2018-05-13T08:25:52.486Z,19.00
2018-05-13T08:28:20.733Z,19.00
2018-05-13T08:30:48.242Z,19.00
2018-05-13T08:33:15.738Z,19.10
2018-05-13T08:35:43.239Z,19.20
2018-05-13T08:38:11.484Z,18.40
2018-05-13T08:40:38.988Z,18.40
2018-05-13T08:43:06.477Z,18.30
2018-05-13T08:45:34.017Z,18.30
2018-05-13T08:48:01.490Z,18.30
2018-05-13T08:50:28.977Z,18.40
2018-05-13T08:52:56.476Z,18.50
2018-05-13T08:55:24.762Z,18.10
2018-05-13T08:57:52.268Z,18.10
2018-05-13T09:00:19.788Z,18.20
2018-05-13T09:02:47.259Z,18.20
2018-05-13T09:05:14.782Z,18.40
2018-05-13T09:07:43.022Z,18.20
2018-05-13T09:10:10.519Z,18.20
2018-05-13T09:12:38.804Z,18.20
2018-05-13T09:15:07.064Z,18.40
2018-05-13T09:17:34.551Z,18.40
2018-05-13T09:20:02.068Z,18.70
2018-05-13T09:22:29.563Z,18.50
2018-05-13T09:24:57.049Z,18.80
2018-05-13T09:27:24.555Z,18.80
2018-05-13T09:29:52.060Z,18.90
2018-05-13T09:32:19.539Z,18.90
2018-05-13T09:34:47.056Z,18.80
2018-05-13T09:37:14.547Z,18.70
2018-05-13T09:39:42.063Z,18.40
2018-05-13T09:42:10.302Z,18.30
2018-05-13T09:44:37.866Z,18.30
2018-05-13T09:47:05.342Z,18.30
2018-05-13T09:49:32.866Z,18.60
2018-05-13T09:52:01.159Z,18.60
2018-05-13T09:54:28.675Z,18.40
2018-05-13T09:56:56.177Z,18.40
2018-05-13T09:59:23.998Z,18.60
2018-05-13T10:01:51.497Z,18.60
2018-05-13T10:04:18.975Z,18.60
2018-05-13T10:06:46.483Z,18.70
2018-05-13T10:09:13.984Z,18.80
2018-05-13T10:11:41.488Z,18.80
2018-05-13T10:14:08.971Z,18.80
2018-05-13T10:16:36.475Z,18.60
2018-05-13T10:19:03.979Z,18.40
2018-05-13T10:21:31.523Z,18.20
2018-05-13T10:23:59.011Z,18.00
2018-05-13T10:26:26.527Z,18.00
2018-05-13T10:28:54.921Z,18.30
2018-05-13T10:31:22.483Z,18.30
2018-05-13T10:33:49.993Z,18.70
2018-05-13T10:36:17.505Z,18.80
2018-05-13T10:38:44.985Z,18.80
2018-05-13T10:41:12.457Z,18.80
2018-05-13T10:43:39.962Z,18.60
2018-05-13T10:46:08.204Z,18.10
2018-05-13T10:48:35.687Z,18.10
2018-05-13T10:51:04.006Z,17.90
2018-05-13T10:53:31.510Z,17.90
2018-05-13T10:55:59.023Z,17.90
2018-05-13T10:58:26.503Z,18.00
2018-05-13T11:00:54.016Z,18.00
2018-05-13T11:03:22.281Z,18.10
2018-05-13T11:05:50.775Z,18.10
2018-05-13T11:08:19.044Z,18.40
2018-05-13T11:10:47.287Z,18.50
2018-05-13T11:13:14.812Z,18.50
2018-05-13T11:15:42.288Z,18.60
2018-05-13T11:18:09.773Z,18.80
2018-05-13T11:20:37.306Z,18.90
2018-05-13T11:23:04.804Z,19.20
2018-05-13T11:25:32.319Z,19.20
2018-05-13T11:27:59.794Z,19.00
2018-05-13T11:30:27.304Z,19.30
2018-05-13T11:32:54.818Z,19.50
2018-05-13T11:35:22.340Z,19.60
2018-05-13T11:37:49.816Z,19.40
2018-05-13T11:40:17.327Z,19.60
2018-05-13T11:42:45.624Z,19.40
2018-05-13T11:45:13.197Z,19.30
2018-05-13T11:47:40.701Z,19.60
2018-05-13T11:50:08.196Z,19.60
2018-05-13T11:52:35.707Z,19.70
2018-05-13T11:55:03.225Z,19.80
2018-05-13T11:57:30.729Z,19.70
2018-05-13T11:59:58.230Z,19.90
2018-05-13T12:02:26.541Z,20.10
2018-05-13T12:04:54.014Z,20.00
2018-05-13T12:07:21.546Z,19.70
2018-05-13T12:09:49.059Z,19.30
2018-05-13T12:12:16.531Z,19.40
2018-05-13T12:14:44.803Z,19.70
2018-05-13T12:17:13.051Z,19.70
2018-05-13T12:19:40.569Z,19.80
2018-05-13T12:22:08.049Z,20.00
2018-05-13T12:24:35.542Z,19.90
2018-05-13T12:27:03.067Z,19.80
2018-05-13T12:29:30.649Z,19.80
2018-05-13T12:31:58.860Z,19.40
2018-05-13T12:34:27.095Z,19.30
2018-05-13T12:36:54.614Z,19.30
2018-05-13T12:39:22.099Z,18.90
2018-05-13T12:41:49.613Z,18.60
2018-05-13T12:44:17.887Z,18.50
2018-05-13T12:46:46.166Z,18.50
2018-05-13T12:49:14.417Z,18.50
2018-05-13T12:51:41.920Z,18.40
2018-05-13T12:54:09.407Z,18.40
2018-05-13T12:56:36.918Z,18.40
2018-05-13T12:59:05.165Z,18.60
2018-05-13T13:01:32.659Z,18.60
2018-05-13T13:04:00.941Z,18.50
2018-05-13T13:06:29.192Z,18.40
2018-05-13T13:08:56.720Z,18.40
2018-05-13T13:11:24.203Z,18.40
2018-05-13T13:13:51.699Z,18.40
2018-05-13T13:16:19.216Z,18.40
2018-05-13T13:18:46.719Z,18.60
2018-05-13T13:21:14.284Z,18.80
2018-05-13T13:23:41.775Z,19.20
2018-05-13T13:26:09.288Z,19.40
2018-05-13T13:28:37.531Z,19.40
2018-05-13T13:31:05.028Z,19.40
2018-05-13T13:33:32.519Z,19.20
2018-05-13T13:36:00.018Z,19.20
2018-05-13T13:38:27.503Z,19.20
2018-05-13T13:40:55.782Z,19.70
2018-05-13T13:43:23.259Z,19.60
2018-05-13T13:45:50.776Z,19.60
2018-05-13T13:48:19.031Z,19.30
2018-05-13T13:50:46.533Z,19.30
2018-05-13T13:53:14.080Z,19.20
2018-05-13T13:55:42.349Z,18.80
2018-05-13T13:58:09.839Z,18.90
2018-05-13T14:00:37.346Z,18.70
2018-05-13T14:03:04.836Z,18.90
2018-05-13T14:05:33.096Z,18.70
2018-05-13T14:08:00.601Z,18.70
2018-05-13T14:10:28.078Z,18.70
2018-05-13T14:12:55.624Z,18.60
2018-05-13T14:15:23.111Z,18.50
2018-05-13T14:17:50.629Z,18.50
2018-05-13T14:20:18.184Z,18.40
2018-05-13T14:22:45.634Z,18.40
2018-05-13T14:25:13.115Z,18.40
2018-05-13T14:27:40.623Z,18.40
2018-05-13T14:30:08.119Z,18.30
2018-05-13T14:32:36.005Z,18.20
2018-05-13T14:35:03.511Z,18.10
2018-05-13T14:37:31.048Z,18.00
2018-05-13T14:39:58.543Z,18.00
2018-05-13T14:42:26.813Z,17.50
2018-05-13T14:44:54.366Z,17.50
2018-05-13T14:47:21.862Z,17.40
2018-05-13T14:49:49.364Z,17.30
2018-05-13T14:52:16.880Z,17.10
2018-05-13T14:54:44.381Z,17.10
2018-05-13T14:57:11.874Z,17.10
2018-05-13T14:59:40.153Z,17.00
2018-05-13T15:02:08.397Z,17.00
2018-05-13T15:04:35.916Z,17.00
2018-05-13T15:07:03.417Z,17.00
2018-05-13T15:09:30.929Z,16.90
2018-05-13T15:11:58.420Z,16.90
2018-05-13T15:14:25.916Z,16.90
2018-05-13T15:16:54.217Z,17.10
2018-05-13T15:19:21.698Z,17.10
2018-05-13T15:21:49.202Z,17.00
2018-05-13T15:24:16.687Z,16.80
2018-05-13T15:26:44.970Z,16.50
2018-05-13T15:29:12.457Z,16.50
2018-05-13T15:31:39.960Z,16.40
2018-05-13T15:34:07.465Z,16.40
2018-05-13T15:36:34.985Z,16.30
2018-05-13T15:39:02.504Z,16.40
2018-05-13T15:41:29.990Z,16.30
2018-05-13T15:43:57.519Z,16.20
2018-05-13T15:46:25.004Z,16.20
2018-05-13T15:48:52.509Z,16.20
2018-05-13T15:51:19.984Z,16.30
2018-05-13T15:53:47.495Z,16.40
2018-05-13T15:56:15.749Z,16.50
2018-05-13T15:58:43.262Z,16.50
2018-05-13T16:01:10.761Z,16.40
2018-05-13T16:03:38.267Z,16.30
2018-05-13T16:06:05.784Z,16.10
2018-05-13T16:08:33.313Z,16.10
2018-05-13T16:11:00.803Z,16.00
2018-05-13T16:13:28.313Z,15.90
2018-05-13T16:15:55.815Z,15.90
2018-05-13T16:18:23.332Z,15.90
2018-05-13T16:20:50.826Z,15.90
2018-05-13T16:23:18.312Z,15.90
2018-05-13T16:25:45.850Z,15.80
2018-05-13T16:28:13.357Z,15.70
2018-05-13T16:30:41.639Z,15.60
2018-05-13T16:33:09.145Z,15.60
2018-05-13T16:35:36.673Z,15.60
2018-05-13T16:38:04.234Z,15.60
2018-05-13T16:40:31.734Z,15.60
2018-05-13T16:42:59.231Z,15.50
2018-05-13T16:45:26.722Z,15.50
2018-05-13T16:47:54.250Z,15.50
2018-05-13T16:50:22.506Z,15.50
2018-05-13T16:52:50.789Z,15.50
2018-05-13T16:55:19.026Z,15.50
2018-05-13T16:57:46.524Z,15.50
2018-05-13T17:00:14.769Z,15.40
2018-05-13T17:02:42.267Z,15.40
2018-05-13T17:05:10.518Z,15.40
2018-05-13T17:07:38.029Z,15.40
2018-05-13T17:10:05.514Z,15.40
2018-05-13T17:12:34.694Z,15.40
2018-05-13T17:15:02.179Z,15.40
2018-05-13T17:17:29.706Z,15.40
2018-05-13T17:19:57.219Z,15.30
2018-05-13T17:22:24.749Z,15.20
2018-05-13T17:24:52.258Z,15.20
2018-05-13T17:27:20.530Z,15.10
2018-05-13T17:29:48.856Z,15.10
2018-05-13T17:32:17.096Z,15.10
2018-05-13T17:34:44.596Z,15.10
2018-05-13T17:37:12.100Z,15.10
2018-05-13T17:39:40.364Z,15.00
2018-05-13T17:42:07.905Z,15.00
2018-05-13T17:44:35.394Z,15.00
2018-05-13T17:47:03.652Z,15.10
2018-05-13T17:49:31.161Z,15.00
2018-05-13T17:51:58.669Z,15.10
2018-05-13T17:54:26.157Z,15.10
2018-05-13T17:56:54.436Z,15.00
2018-05-13T17:59:22.697Z,14.90
2018-05-13T18:01:50.297Z,14.90
2018-05-13T18:04:17.857Z,14.90
2018-05-13T18:06:45.370Z,14.80
2018-05-13T18:09:12.895Z,14.70
2018-05-13T18:11:40.497Z,14.70
2018-05-13T18:14:07.913Z,14.70
2018-05-13T18:16:35.408Z,14.70
2018-05-13T18:19:02.912Z,14.70
2018-05-13T18:21:30.419Z,14.60
2018-05-13T18:23:57.916Z,14.60
2018-05-13T18:26:25.402Z,14.50
2018-05-13T18:28:52.914Z,14.50
2018-05-13T18:31:21.169Z,14.40
2018-05-13T18:33:48.679Z,14.30
2018-05-13T18:36:16.172Z,14.40
2018-05-13T18:38:43.684Z,14.30
2018-05-13T18:41:11.176Z,14.30
2018-05-13T18:43:38.685Z,14.20
2018-05-13T18:46:06.941Z,14.30
2018-05-13T18:48:34.459Z,14.20
2018-05-13T18:51:01.937Z,14.20
2018-05-13T18:53:29.436Z,14.00
2018-05-13T18:55:57.751Z,13.70
2018-05-13T18:58:25.310Z,13.80
2018-05-13T19:00:52.819Z,13.70
2018-05-13T19:03:20.328Z,13.70
2018-05-13T19:05:47.843Z,13.60
2018-05-13T19:08:15.349Z,13.60
2018-05-13T19:10:42.858Z,13.60
2018-05-13T19:13:10.367Z,13.60
2018-05-13T19:15:37.870Z,13.60
2018-05-13T19:18:05.437Z,13.60
2018-05-13T19:20:32.977Z,13.60
2018-05-13T19:23:00.475Z,13.60
2018-05-13T19:25:28.781Z,13.50
2018-05-13T19:27:56.282Z,13.40
2018-05-13T19:30:23.776Z,13.40
2018-05-13T19:32:51.290Z,13.40
2018-05-13T19:35:18.779Z,13.30
2018-05-13T19:37:46.290Z,13.00
2018-05-13T19:40:13.792Z,12.80
2018-05-13T19:42:42.066Z,12.70
2018-05-13T19:45:09.563Z,12.70
2018-05-13T19:47:37.077Z,12.70
2018-05-13T19:50:04.567Z,12.80
2018-05-13T19:52:32.050Z,12.70
2018-05-13T19:54:59.574Z,12.70
2018-05-13T19:57:27.833Z,12.80
2018-05-13T19:59:55.444Z,12.80
2018-05-13T20:02:22.952Z,12.80
2018-05-13T20:04:50.463Z,12.80
2018-05-13T20:07:17.983Z,13.00
2018-05-13T20:09:46.404Z,13.10
2018-05-13T20:12:13.920Z,13.10
2018-05-13T20:14:42.204Z,13.20
2018-05-13T20:17:10.462Z,13.20
2018-05-13T20:19:37.994Z,13.20
2018-05-13T20:22:05.472Z,13.30
2018-05-13T20:24:32.993Z,13.30
2018-05-13T20:27:00.487Z,13.20
2018-05-13T20:29:28.000Z,13.20
2018-05-13T20:31:55.487Z,13.20
2018-05-13T20:34:23.005Z,13.10
2018-05-13T20:36:50.495Z,13.20
2018-05-13T20:39:18.015Z,13.10
2018-05-13T20:41:46.288Z,13.10
2018-05-13T20:44:14.597Z,13.10
2018-05-13T20:46:42.092Z,13.10
2018-05-13T20:49:09.619Z,13.10
2018-05-13T20:51:37.138Z,13.00
2018-05-13T20:54:04.652Z,13.00
2018-05-13T20:56:32.161Z,13.00
2018-05-13T20:59:00.432Z,12.90
2018-05-13T21:01:28.695Z,13.00
2018-05-13T21:03:56.196Z,13.00
2018-05-13T21:06:23.701Z,12.90
2018-05-13T21:08:51.195Z,12.90
2018-05-13T21:11:19.473Z,13.00
2018-05-13T21:13:47.735Z,12.90
2018-05-13T21:16:15.243Z,12.90
2018-05-13T21:18:42.724Z,13.00
2018-05-13T21:21:10.252Z,12.90
2018-05-13T21:23:37.744Z,12.90
2018-05-13T21:26:05.245Z,12.80
2018-05-13T21:28:33.514Z,12.90
2018-05-13T21:31:01.800Z,12.90
2018-05-13T21:33:30.108Z,13.00
2018-05-13T21:35:57.616Z,13.00
2018-05-13T21:38:25.126Z,13.00
2018-05-13T21:40:53.077Z,12.90
2018-05-13T21:43:20.587Z,12.90
2018-05-13T21:45:48.070Z,13.00
2018-05-13T21:48:16.342Z,12.80
2018-05-13T21:50:43.839Z,12.80
2018-05-13T21:53:11.363Z,12.80
2018-05-13T21:55:39.622Z,12.90
2018-05-13T21:58:07.136Z,12.80
2018-05-13T22:00:34.636Z,12.80
2018-05-13T22:03:02.124Z,12.90
2018-05-13T22:05:29.627Z,12.80
2018-05-13T22:07:57.137Z,12.80
2018-05-13T22:10:25.412Z,12.70
2018-05-13T22:12:52.930Z,12.70
2018-05-13T22:15:20.431Z,12.80
2018-05-13T22:17:48.706Z,12.80
2018-05-13T22:20:16.958Z,12.70
2018-05-13T22:22:44.456Z,12.70
2018-05-13T22:25:12.735Z,12.70
2018-05-13T22:27:40.996Z,12.80
2018-05-13T22:30:08.488Z,12.80
2018-05-13T22:32:35.984Z,12.70
2018-05-13T22:35:03.485Z,12.80
2018-05-13T22:37:31.736Z,12.90
2018-05-13T22:39:59.253Z,12.90
2018-05-13T22:42:26.757Z,12.80
2018-05-13T22:44:54.276Z,12.90
2018-05-13T22:47:21.774Z,12.80
2018-05-13T22:49:49.281Z,12.70
2018-05-13T22:52:16.841Z,12.70
2018-05-13T22:54:45.141Z,12.80
2018-05-13T22:57:12.689Z,12.80
2018-05-13T22:59:40.168Z,12.80
2018-05-13T23:02:07.697Z,12.80
2018-05-13T23:04:35.196Z,12.70
2018-05-13T23:07:02.721Z,12.80
2018-05-13T23:09:30.212Z,12.90
2018-05-13T23:11:57.727Z,12.90
2018-05-13T23:14:25.215Z,12.90
2018-05-13T23:16:52.727Z,13.00
2018-05-13T23:19:20.987Z,12.90
2018-05-13T23:21:49.283Z,12.90
2018-05-13T23:24:17.542Z,12.90
2018-05-13T23:26:45.822Z,12.90
2018-05-13T23:29:14.104Z,13.00
2018-05-13T23:31:42.349Z,13.10
2018-05-13T23:34:09.884Z,13.00
2018-05-13T23:36:37.389Z,13.00
2018-05-13T23:39:04.894Z,13.10
2018-05-13T23:41:32.377Z,13.10
2018-05-13T23:43:59.882Z,13.10
2018-05-13T23:46:28.123Z,13.10
2018-05-13T23:48:55.625Z,13.10
2018-05-13T23:51:23.977Z,13.20
2018-05-13T23:53:52.177Z,13.10
2018-05-13T23:56:20.455Z,13.10
2018-05-13T23:58:48.724Z,13.00
